Latest Weather Observations for Wudinna Airport

IDS60801

Issued at 7:51 pm CDT Sunday 24 January 2021 (issued every 10 minutes, with the page automatically refreshed every 10 minutes)

About weather observations | Map of weather stations | Latest weather observations for SA | Other Formats
Station Details ID: 018083 Name: WUDINNA AERO Lat: -33.04 Lon: 135.45 Height: 86.4 m
Data from the previous 72 hours. | See also: Recent months at Wudinna Airport
Date/Time
CDT
Temp
°C
App
Temp
°C
Dew
Point
°C
Rel
Hum
%
Delta-T
°C
Wind Press
QNH
hPa
Press
MSL
hPa
Rain since
9am
mm
Dir  Spd
km/h
Gust
km/h
Spd
kts
Gust
kts
24/07:30pm 33.0 29.5 7.1 20 14.3 NNW 15 19 8 10 1003.1 1002.7 0.0
24/07:00pm 33.8 28.8 4.5 16 15.5 NNW 20 33 11 18 1003.2 1002.8 0.0
24/06:33pm 33.9 24.9 4.6 16 15.5 NNW 41 59 22 32 1002.9 1002.5 0.0
24/06:30pm 34.2 24.7 3.9 15 16.0 NNW 43 59 23 32 1003.0 1002.6 0.0
24/06:00pm 34.5 24.6 5.0 16 15.9 NNW 46 76 25 41 1003.0 1002.6 0.0
24/05:56pm 35.9 26.5 4.2 14 16.9 NNW 43 76 23 41 1002.9 1002.5 0.0
24/05:30pm 37.0 28.5 2.9 12 18.0 NNW 37 54 20 29 1002.6 1002.2 0.0
24/05:26pm 37.2 29.2 1.8 11 18.3 N 33 54 18 29 1002.6 1002.2 0.0
24/05:00pm 36.4 28.2 4.6 14 17.1 NNW 37 52 20 28 1003.2 1002.8 0.0
24/04:30pm 37.2 27.8 5.3 14 17.5 NW 44 56 24 30 1003.5 1003.1 0.0
24/04:00pm 40.4 32.4 5.5 12 19.4 NW 37 56 20 30 1003.4 1003.0 0.0
24/03:48pm 39.6 30.7 4.9 12 19.0 WNW 41 59 22 32 1003.4 1003.0 0.0
24/03:30pm 39.3 29.9 4.7 12 19.0 NW 43 57 23 31 1003.7 1003.3 0.0
24/03:01pm 38.9 31.4 4.4 12 18.7 WNW 33 54 18 29 1003.9 1003.5 0.0
24/03:00pm 38.7 31.3 4.2 12 18.7 WNW 32 48 17 26 1003.9 1003.5 0.0
24/02:30pm 38.8 32.4 5.4 13 18.5 WNW 28 39 15 21 1004.3 1003.9 0.0
24/02:00pm 37.8 33.0 5.7 14 17.7 WNW 20 28 11 15 1004.2 1003.8 0.0
24/01:30pm 35.6 30.5 7.6 18 15.8 WNW 24 37 13 20 1004.7 1004.3 0.0
24/01:00pm 35.2 28.9 7.3 18 15.5 NW 30 35 16 19 1005.0 1004.6 0.0
24/12:30pm 34.4 30.4 8.9 21 14.6 NW 20 30 11 16 1005.3 1004.9 0.0
24/12:00pm 34.0 29.3 9.3 22 14.2 WNW 24 32 13 17 1005.2 1004.8 0.0
24/11:30am 32.2 29.9 10.3 26 12.6 W 13 20 7 11 1005.0 1004.6 0.0
24/11:00am 30.8 28.3 11.2 30 11.4 WSW 15 20 8 11 1004.9 1004.5 0.0
24/10:30am 29.9 27.5 9.9 29 11.4 W 13 20 7 11 1005.1 1004.7 0.0
24/10:00am 29.5 25.7 11.1 32 10.6 NW 22 30 12 16 1005.5 1005.1 0.0
24/09:30am 28.7 24.0 10.8 33 10.3 NW 26 32 14 17 1005.4 1005.0 0.0
24/09:00am 27.9 24.4 10.1 33 10.0 NNW 19 26 10 14 1004.9 1004.5 0.0
24/08:30am 29.5 25.0 4.2 20 13.0 NNW 17 22 9 12 1005.1 1004.7 0.0
24/08:00am 30.4 27.2 0.9 15 14.4 NNW 7 13 4 7 1004.7 1004.3 0.0
24/07:30am 29.6 24.7 -0.7 14 14.4 NW 15 17 8 9 1004.5 1004.1 0.0
24/07:00am 30.4 24.7 -1.1 13 14.9 NNW 19 24 10 13 1004.1 1003.7 0.0
24/06:30am 30.3 25.7 -1.2 13 14.9 NNW 13 17 7 9 1003.6 1003.2 0.0
24/06:00am 31.3 25.3 -1.5 12 15.5 N 20 33 11 18 1003.1 1002.7 0.0
24/05:30am 32.2 26.3 -2.0 11 16.2 NE 19 24 10 13 1002.7 1002.3 0.0
24/05:00am 32.4 25.6 -1.8 11 16.2 NE 24 32 13 17 1002.5 1002.1 0.0
24/04:30am 32.6 26.6 -1.7 11 16.3 NE 20 26 11 14 1002.5 1002.1 0.0
24/04:00am 31.8 25.7 -2.3 11 15.9 NE 20 28 11 15 1002.6 1002.2 0.0
24/03:30am 32.3 25.5 -1.9 11 16.2 NE 24 30 13 16 1002.9 1002.5 0.0
24/03:00am 32.0 25.9 -2.1 11 16.1 NE 20 28 11 15 1003.4 1003.0 0.0
24/02:30am 32.2 26.1 -2.0 11 16.2 NE 20 24 11 13 1003.7 1003.3 0.0
24/02:00am 32.5 25.7 -1.7 11 16.2 ENE 24 35 13 19 1004.1 1003.7 0.0
24/01:30am 33.2 26.3 -2.5 10 16.8 ENE 24 32 13 17 1004.2 1003.8 0.0
24/01:00am 33.7 26.9 -2.1 10 17.0 ENE 24 32 13 17 1004.6 1004.2 0.0
24/12:30am 33.9 27.5 -2.0 10 17.2 ENE 22 30 12 16 1004.8 1004.4 0.0
24/12:00am 34.2 27.4 -1.7 10 17.3 ENE 24 32 13 17 1004.9 1004.5 0.0
 
Date/Time
CDT
Temp
°C
App
Temp
°C
Dew
Point
°C
Rel
Hum
%
Delta-T
°C
Wind Press
QNH
hPa
Press
MSL
hPa
Rain since
9am
mm
Dir  Spd
km/h
Gust
km/h
Spd
kts
Gust
kts
23/11:30pm 34.1 28.1 -1.8 10 17.2 ENE 20 28 11 15 1005.1 1004.7 0.0
23/11:00pm 35.0 29.3 -1.1 10 17.6 ENE 19 28 10 15 1005.2 1004.8 0.0
23/10:30pm 35.6 29.7 -2.1 9 18.2 ENE 19 28 10 15 1005.1 1004.7 0.0
23/10:00pm 36.5 31.5 -1.4 9 18.5 E 15 24 8 13 1004.9 1004.5 0.0
23/09:30pm 37.2 32.2 -0.9 9 18.9 SE 15 26 8 14 1004.5 1004.1 0.0
23/09:00pm 37.4 32.8 -0.8 9 19.0 SSW 13 19 7 10 1004.1 1003.7 0.0
23/08:30pm 37.7 33.5 -0.6 9 19.2 NE 11 13 6 7 1003.9 1003.5 0.0
23/08:00pm 40.0 36.2 -0.5 8 20.5 NE 9 11 5 6 1003.8 1003.4 0.0
23/07:30pm 41.1 36.8 -1.5 7 21.5 NE 11 17 6 9 1003.7 1003.3 0.0
23/07:00pm 41.7 37.9 -1.1 7 21.7 E 9 15 5 8 1003.6 1003.2 0.0
23/06:30pm 42.7 38.9 -0.4 7 22.3 ESE 9 19 5 10 1003.5 1003.1 0.0
23/06:00pm 43.0 39.9 -0.1 7 22.4 SW 6 11 3 6 1003.7 1003.3 0.0
23/05:30pm 42.5 38.4 -0.5 7 22.2 N 11 17 6 9 1003.9 1003.5 0.0
23/05:00pm 42.5 38.4 -0.5 7 22.1 N 11 17 6 9 1004.1 1003.7 0.0
23/04:30pm 43.3 40.0 0.1 7 22.6 SE 7 19 4 10 1004.3 1003.9 0.0
23/04:00pm 43.0 38.5 -0.1 7 22.4 ESE 13 20 7 11 1004.6 1004.2 0.0
23/03:30pm 42.3 37.8 -0.6 7 22.1 NE 13 24 7 13 1004.9 1004.5 0.0
23/03:00pm 42.8 38.3 -0.3 7 22.3 ENE 13 24 7 13 1005.0 1004.6 0.0
23/02:30pm 42.0 37.4 -0.9 7 21.9 NE 13 19 7 10 1005.4 1005.0 0.0
23/02:00pm 41.8 36.1 -1.0 7 21.8 NNE 19 26 10 14 1005.9 1005.5 0.0
23/01:30pm 40.8 35.7 -1.7 7 21.3 NNE 15 26 8 14 1006.2 1005.8 0.0
23/01:00pm 41.5 36.5 -1.2 7 21.6 N 15 24 8 13 1006.6 1006.2 0.0
23/12:30pm 41.5 36.1 -1.2 7 21.7 NNE 17 24 9 13 1006.9 1006.5 0.0
23/12:00pm 39.7 32.4 -2.5 7 20.8 NNE 26 37 14 20 1007.3 1006.8 0.0
23/11:30am 39.0 32.1 -3.0 7 20.4 NNE 24 33 13 18 1007.5 1007.0 0.0
23/11:00am 37.9 29.7 -3.8 7 19.8 NNE 30 39 16 21 1007.6 1007.1 0.0
23/10:30am 36.5 28.4 -3.0 8 18.9 NNE 30 39 16 21 1007.9 1007.4 0.0
23/10:00am 34.8 27.1 -2.7 9 17.8 NNE 28 39 15 21 1008.0 1007.5 0.0
23/09:30am 33.1 25.6 -1.3 11 16.5 NNE 28 37 15 20 1008.4 1007.9 0.0
23/09:00am 32.0 24.2 -0.9 12 15.8 NE 30 39 16 21 1008.3 1007.8 0.0
23/08:30am 29.6 23.6 -1.7 13 14.6 NE 20 32 11 17 1008.1 1007.6 0.0
23/08:00am 27.5 21.5 -1.4 15 13.3 NE 20 30 11 16 1008.1 1007.6 0.0
23/07:30am 25.5 20.1 -1.3 17 12.2 ENE 17 24 9 13 1008.0 1007.5 0.0
23/07:00am 23.6 18.9 -2.1 18 11.3 ENE 13 20 7 11 1007.9 1007.4 0.0
23/06:30am 23.0 18.6 -2.6 18 11.1 ENE 11 15 6 8 1007.8 1007.3 0.0
23/06:00am 24.1 18.2 -2.4 17 11.6 ENE 19 26 10 14 1007.5 1007.0 0.0
23/05:30am 23.4 18.6 -0.1 21 10.7 ENE 15 22 8 12 1007.4 1006.9 0.0
23/05:00am 23.2 17.6 0.9 23 10.3 ENE 20 30 11 16 1007.3 1006.8 0.0
23/04:30am 23.6 18.3 1.9 24 10.3 ENE 19 28 10 15 1007.3 1006.8 0.0
23/04:00am 23.2 19.7 3.7 28 9.5 E 11 24 6 13 1007.7 1007.2 0.0
23/03:30am 22.1 20.1 2.2 27 9.4 E 2 7 1 4 1008.2 1007.7 0.0
23/03:00am 22.6 18.3 1.0 24 10.0 E 13 19 7 10 1008.3 1007.8 0.0
23/02:30am 22.0 18.1 1.1 25 9.7 ENE 11 15 6 8 1008.4 1007.9 0.0
23/02:00am 22.6 19.2 1.6 25 9.8 E 9 13 5 7 1008.5 1008.0 0.0
23/01:30am 21.1 17.8 2.4 29 8.8 E 9 11 5 6 1009.2 1008.8 0.0
23/01:00am 22.1 18.8 2.2 27 9.4 E 9 11 5 6 1009.6 1009.2 0.0
23/12:30am 22.7 19.0 2.2 26 9.7 E 11 17 6 9 1009.9 1009.5 0.0
23/12:00am 23.3 19.9 1.6 24 10.2 ESE 9 15 5 8 1010.0 1009.6 0.0
 
Date/Time
CDT
Temp
°C
App
Temp
°C
Dew
Point
°C
Rel
Hum
%
Delta-T
°C
Wind Press
QNH
hPa
Press
MSL
hPa
Rain since
9am
mm
Dir  Spd
km/h
Gust
km/h
Spd
kts
Gust
kts
22/11:30pm 24.6 20.4 1.5 22 11.0 ESE 13 19 7 10 1010.2 1009.8 0.0
22/11:00pm 25.6 21.1 -0.5 18 12.0 ESE 13 17 7 9 1010.1 1009.7 0.0
22/10:30pm 26.8 21.7 -2.0 15 13.0 SE 15 20 8 11 1010.1 1009.7 0.0
22/10:00pm 27.9 22.4 -2.0 14 13.6 SE 17 26 9 14 1010.0 1009.6 0.0
22/09:30pm 29.4 23.4 -1.9 13 14.5 SE 20 24 11 13 1009.8 1009.4 0.0
22/09:00pm 31.2 25.6 -2.7 11 15.7 SE 17 26 9 14 1009.5 1009.1 0.0
22/08:30pm 33.0 27.1 -2.6 10 16.7 SE 19 28 10 15 1009.2 1008.8 0.0
22/08:00pm 35.0 29.1 -1.1 10 17.6 SE 20 33 11 18 1008.7 1008.2 0.0
22/07:30pm 36.0 29.0 -0.4 10 18.1 SE 26 39 14 21 1008.2 1007.7 0.0
22/07:00pm 38.3 33.5 -0.1 9 19.4 SSE 15 24 8 13 1007.5 1007.0 0.0
22/06:30pm 38.2 32.7 -1.8 8 19.7 SSE 17 26 9 14 1007.5 1007.0 0.0
22/06:00pm 38.5 33.4 -1.6 8 19.9 SE 15 24 8 13 1007.6 1007.1 0.0
22/05:30pm 39.2 33.3 -1.1 8 20.2 SSW 20 33 11 18 1007.9 1007.4 0.0
22/05:00pm 38.7 34.1 -1.4 8 19.9 SW 13 32 7 17 1008.1 1007.6 0.0
22/04:30pm 38.7 34.4 -1.4 8 19.9 S 11 24 6 13 1008.3 1007.8 0.0
22/04:00pm 38.5 34.6 -1.6 8 19.8 S 9 17 5 9 1008.5 1008.0 0.0
22/03:30pm 38.1 32.6 -1.9 8 19.7 SSW 17 30 9 16 1008.8 1008.3 0.0
22/03:00pm 37.4 32.2 -2.4 8 19.3 SSW 15 30 8 16 1009.1 1008.7 0.0
22/02:30pm 37.7 32.2 -2.2 8 19.5 SSW 17 22 9 12 1009.5 1009.1 0.0
22/02:00pm 36.7 31.9 -2.9 8 18.9 ESE 13 19 7 10 1009.9 1009.5 0.0
22/01:30pm 36.4 31.5 -3.1 8 18.8 SSW 13 24 7 13 1010.2 1009.8 0.0
22/01:00pm 36.1 32.0 -3.3 8 18.7 S 9 17 5 9 1010.5 1010.1 0.0
22/12:30pm 34.6 30.3 -1.4 10 17.4 SSE 11 17 6 9 1010.7 1010.3 0.0
22/12:00pm 33.5 28.9 -1.0 11 16.7 SE 13 19 7 10 1011.1 1010.7 0.0
22/11:30am 32.6 27.9 0.6 13 15.8 SSE 15 20 8 11 1011.3 1010.9 0.0
22/11:00am 30.8 26.8 3.0 17 14.1 SE 13 20 7 11 1011.6 1011.2 0.0
22/10:30am 29.0 25.4 3.1 19 13.0 SE 11 17 6 9 1011.6 1011.2 0.0
22/10:00am 26.3 23.0 4.7 25 11.0 SE 11 17 6 9 1011.7 1011.3 0.0
22/09:30am 24.9 21.1 5.7 29 9.8 SSE 15 20 8 11 1011.7 1011.3 0.0
22/09:00am 24.2 21.5 5.5 30 9.5 SE 9 11 5 6 1011.4 1011.0 0.0
22/08:30am 21.7 19.3 6.8 38 7.6 SE 9 11 5 6 1011.3 1010.9 0.0
22/08:00am 21.0 19.0 6.9 40 7.2 ESE 7 9 4 5 1011.1 1010.7 0.0
22/07:30am 16.4 14.5 7.6 56 4.4 NNE 7 9 4 5 1010.9 1010.5 0.0
22/07:00am 13.2 10.7 4.6 56 4.0 NE 7 9 4 5 1010.9 1010.5 0.0
22/06:30am 14.0 12.0 6.4 60 3.7 ENE 6 7 3 4 1010.8 1010.4 0.0
22/06:00am 14.2 11.5 5.8 57 4.0 NE 9 11 5 6 1010.7 1010.3 0.0
22/05:30am 14.8 12.7 5.9 55 4.3 ENE 6 6 3 3 1010.8 1010.4 0.0
22/05:00am 14.7 12.9 5.5 54 4.4 E 4 7 2 4 1010.6 1010.2 0.0
22/04:30am 14.5 12.9 2.7 45 5.3 CALM 0 0 0 0 1010.6 1010.2 0.0
22/04:00am 14.3 11.4 1.6 42 5.5 NE 6 7 3 4 1010.5 1010.1 0.0
22/03:30am 15.2 13.6 2.4 42 5.7 CALM 0 6 0 3 1010.5 1010.1 0.0
22/03:00am 16.2 14.5 1.9 38 6.4 CALM 0 0 0 0 1010.4 1010.0 0.0
22/02:30am 18.1 16.5 4.3 40 6.6 SSE 2 7 1 4 1010.7 1010.3 0.0
22/02:00am 18.6 17.4 4.4 39 6.8 CALM 0 0 0 0 1011.0 1010.6 0.0
22/01:30am 19.9 17.4 3.6 34 7.8 E 6 7 3 4 1011.2 1010.8 0.0
22/01:00am 21.9 19.4 4.9 33 8.4 SE 7 11 4 6 1011.5 1011.1 0.0
22/12:30am 22.5 19.5 4.1 30 9.0 SE 9 11 5 6 1011.5 1011.1 0.0
22/12:00am 23.3 20.2 3.8 28 9.6 ESE 9 13 5 7 1011.9 1011.5 0.0
 
Date/Time
CDT
Temp
°C
App
Temp
°C
Dew
Point
°C
Rel
Hum
%
Delta-T
°C
Wind Press
QNH
hPa
Press
MSL
hPa
Rain since
9am
mm
Dir  Spd
km/h
Gust
km/h
Spd
kts
Gust
kts
21/11:30pm 24.8 21.0 4.0 26 10.3 SE 13 17 7 9 1011.8 1011.4 0.0
21/11:00pm 25.6 22.0 2.9 23 11.1 ESE 11 15 6 8 1011.6 1011.2 0.0
21/10:30pm 27.0 21.9 2.8 21 11.9 SE 19 26 10 14 1011.5 1011.1 0.0
21/10:00pm 27.4 23.3 2.5 20 12.2 SE 13 20 7 11 1011.3 1010.9 0.0
21/09:30pm 27.8 23.7 2.1 19 12.6 S 13 17 7 9 1010.9 1010.5 0.0
21/09:00pm 29.7 24.0 0.3 15 14.2 SSW 20 26 11 14 1010.3 1009.9 0.0
21/08:30pm 32.0 25.3 -0.9 12 15.8 SSW 24 32 13 17 1009.8 1009.4 0.0
21/08:00pm 34.1 27.7 -1.8 10 17.2 SSW 22 30 12 16 1009.5 1009.1 0.0

Other formats

Comma delimited format used in spreadsheet applications
http://www.bom.gov.au/fwo/IDS60801/IDS60801.95654.axf

JavaScript Object Notation format (JSON) in row-major order
http://www.bom.gov.au/fwo/IDS60801/IDS60801.95654.json

Data quality

Most of these data are generated automatically and are frequently updated. Quality checks on data are not normally performed. It is possible for incorrect values to appear. Refer to information at About Latest Weather Observations and please check the disclaimer before using these data.